Time;durP1;ratioP1;P1;durP2;ratioP2;P2;SDS_P1;SDS_P2;PMS_P1;PMS_P2;Temp;Humidity;BMP_temperature;BMP_pressure;BME280_temperature;BME280_humidity;BME280_pressure;Samples;Min_cycle;Max_cycle;Signal;HPM_P1;HPM_P2
2021/03/30 00:01:33;;;;;;;11.07;5.83;;;6.80;99.90;;;;;;5109922;28;20522;-69
2021/03/30 00:03:59;;;;;;;8.00;5.10;;;6.80;99.90;;;;;;5108996;28;20520;-69
2021/03/30 00:06:26;;;;;;;10.00;5.40;;;6.70;99.90;;;;;;5109623;28;20535;-69
2021/03/30 00:08:52;;;;;;;7.50;4.83;;;6.60;99.90;;;;;;5107512;28;20538;-69
2021/03/30 00:11:19;;;;;;;6.70;5.30;;;6.60;99.90;;;;;;5110771;28;20525;-69
2021/03/30 00:13:45;;;;;;;13.60;5.20;;;6.50;99.90;;;;;;5111251;28;20625;-69
2021/03/30 00:16:12;;;;;;;8.03;4.63;;;6.40;99.90;;;;;;5111053;28;20443;-69
2021/03/30 00:18:39;;;;;;;6.90;4.90;;;6.40;99.90;;;;;;5111060;28;20548;-69
2021/03/30 00:21:05;;;;;;;8.77;5.10;;;6.30;99.90;;;;;;5110434;28;20515;-70
2021/03/30 00:23:32;;;;;;;10.53;6.33;;;6.30;99.90;;;;;;5110381;28;20441;-70
2021/03/30 00:25:58;;;;;;;9.30;4.93;;;6.20;99.90;;;;;;5110745;28;20896;-70
2021/03/30 00:28:24;;;;;;;8.90;5.87;;;6.20;99.90;;;;;;5110890;28;20461;-70
2021/03/30 00:30:51;;;;;;;8.00;5.00;;;6.20;99.90;;;;;;5110614;28;21010;-70
2021/03/30 00:33:19;;;;;;;10.47;5.70;;;6.20;99.90;;;;;;5110770;28;20532;-71
2021/03/30 00:35:45;;;;;;;6.97;5.03;;;6.20;99.90;;;;;;5110672;28;20451;-70
2021/03/30 00:38:11;;;;;;;7.27;5.10;;;6.10;99.90;;;;;;5110715;28;20903;-70
2021/03/30 00:40:38;;;;;;;7.10;4.90;;;5.90;99.90;;;;;;5110339;28;20572;-70
2021/03/30 00:43:05;;;;;;;7.60;5.20;;;5.90;99.90;;;;;;5110660;28;20532;-69
2021/03/30 00:45:31;;;;;;;10.80;5.67;;;5.90;99.90;;;;;;5110726;28;20536;-69
2021/03/30 00:47:58;;;;;;;8.23;5.17;;;5.90;99.90;;;;;;5110484;28;20557;-70
2021/03/30 00:50:31;;;;;;;7.20;4.97;;;5.90;99.90;;;;;;5110499;28;20528;-69
2021/03/30 00:52:58;;;;;;;8.90;5.83;;;5.90;99.90;;;;;;5110611;28;20485;-69
2021/03/30 00:55:25;;;;;;;7.23;5.13;;;5.80;99.90;;;;;;5110387;28;20453;-70
2021/03/30 00:57:51;;;;;;;8.50;5.90;;;5.80;99.90;;;;;;5110604;28;20496;-70
2021/03/30 01:00:18;;;;;;;7.40;5.43;;;5.70;99.90;;;;;;5110318;28;20563;-70
2021/03/30 01:02:45;;;;;;;8.37;5.47;;;5.70;99.90;;;;;;5110556;28;20464;-70
2021/03/30 01:05:13;;;;;;;8.80;5.60;;;5.60;99.90;;;;;;5110742;28;20436;-69
2021/03/30 01:07:56;;;;;;;8.83;5.93;;;5.60;99.90;;;;;;5110394;28;20471;-71
2021/03/30 01:10:34;;;;;;;6.43;5.10;;;5.60;99.90;;;;;;5110081;28;20544;-71
2021/03/30 01:13:10;;;;;;;10.10;5.83;;;5.60;99.90;;;;;;5110268;28;20512;-71
2021/03/30 01:15:44;;;;;;;9.03;5.97;;;5.60;99.90;;;;;;5110222;28;20532;-70
2021/03/30 01:18:18;;;;;;;7.67;5.30;;;5.60;99.90;;;;;;5110284;28;20955;-70
2021/03/30 01:21:08;;;;;;;6.83;5.23;;;5.50;99.90;;;;;;5110098;28;20476;-70
2021/03/30 01:23:57;;;;;;;7.30;5.70;;;5.40;99.90;;;;;;5109998;28;20474;-70
2021/03/30 01:26:34;;;;;;;9.40;6.17;;;5.40;99.90;;;;;;5076262;28;20532;-70
2021/03/30 01:29:39;;;;;;;6.80;5.80;;;5.50;99.90;;;;;;5110221;28;20472;-70
2021/03/30 01:32:25;;;;;;;6.90;5.80;;;5.40;99.90;;;;;;5110477;28;20535;-70
2021/03/30 01:34:55;;;;;;;9.43;6.00;;;5.20;99.90;;;;;;5111434;28;20495;-71
2021/03/30 01:37:23;;;;;;;10.53;6.33;;;5.10;99.90;;;;;;5113843;28;20535;-70
2021/03/30 01:39:52;;;;;;;7.63;6.17;;;5.00;99.90;;;;;;5113635;28;20568;-70
2021/03/30 01:42:23;;;;;;;7.83;6.23;;;4.90;99.90;;;;;;5113859;28;20481;-70
2021/03/30 01:44:51;;;;;;;7.80;5.43;;;4.80;99.90;;;;;;5114079;28;20528;-70
2021/03/30 01:47:20;;;;;;;9.13;5.50;;;4.80;99.90;;;;;;5113694;28;20552;-71
2021/03/30 01:49:46;;;;;;;8.07;5.43;;;4.80;99.90;;;;;;5113633;28;20531;-70
2021/03/30 01:52:17;;;;;;;7.97;6.07;;;4.70;99.90;;;;;;5113723;28;20441;-70
2021/03/30 01:54:44;;;;;;;8.10;6.10;;;4.70;99.90;;;;;;5113684;28;20947;-71
2021/03/30 01:57:12;;;;;;;11.00;6.20;;;4.70;99.90;;;;;;5113861;28;20464;-71
2021/03/30 01:59:43;;;;;;;8.67;6.60;;;4.80;99.90;;;;;;5113601;28;20559;-70
2021/03/30 02:02:10;;;;;;;6.97;6.27;;;4.80;99.90;;;;;;5113537;28;20449;-71
2021/03/30 02:04:39;;;;;;;14.67;7.20;;;4.70;99.90;;;;;;5113496;28;20595;-70
2021/03/30 02:07:07;;;;;;;11.40;6.30;;;4.80;99.90;;;;;;5113377;28;20552;-71
2021/03/30 02:09:38;;;;;;;11.20;5.87;;;4.70;99.90;;;;;;5113160;28;20543;-71
2021/03/30 02:12:09;;;;;;;12.47;6.20;;;4.70;99.90;;;;;;5113905;28;20445;-70
2021/03/30 02:14:35;;;;;;;6.70;5.67;;;4.80;99.90;;;;;;5113409;28;20448;-71
2021/03/30 02:17:04;;;;;;;6.67;5.57;;;4.80;99.90;;;;;;5113321;28;20957;-71
2021/03/30 02:19:42;;;;;;;9.00;6.93;;;4.70;99.90;;;;;;5112783;28;20568;-70
2021/03/30 02:22:19;;;;;;;10.80;6.30;;;4.60;99.90;;;;;;5113318;28;20452;-71
2021/03/30 02:24:46;;;;;;;13.20;7.17;;;4.60;99.90;;;;;;5113441;28;20524;-70
2021/03/30 02:27:12;;;;;;;12.47;7.13;;;4.70;99.90;;;;;;5112946;28;20548;-69
2021/03/30 02:29:40;;;;;;;16.07;7.00;;;4.60;99.90;;;;;;5112564;28;20912;-71
2021/03/30 02:32:12;;;;;;;9.73;6.73;;;4.60;99.90;;;;;;5112938;28;20452;-71
2021/03/30 02:34:40;;;;;;;14.20;7.97;;;4.60;99.90;;;;;;5113287;28;20437;-72
2021/03/30 02:37:07;;;;;;;10.33;7.77;;;4.60;99.90;;;;;;5112776;28;20548;-71
2021/03/30 02:39:35;;;;;;;10.53;7.57;;;4.50;99.90;;;;;;5112499;28;20560;-72
2021/03/30 02:42:02;;;;;;;11.10;7.63;;;4.50;99.90;;;;;;5112833;28;20540;-71
2021/03/30 02:44:30;;;;;;;12.90;7.73;;;4.40;99.90;;;;;;5112936;28;20445;-71
2021/03/30 02:46:57;;;;;;;8.67;6.30;;;4.40;99.90;;;;;;5112003;28;20913;-71
2021/03/30 02:49:26;;;;;;;10.53;6.90;;;4.30;99.90;;;;;;5112639;28;20476;-71
2021/03/30 02:51:57;;;;;;;9.87;6.70;;;4.30;99.90;;;;;;5112560;28;20919;-71
2021/03/30 02:54:24;;;;;;;10.97;7.50;;;4.20;99.90;;;;;;5112722;28;20448;-71
2021/03/30 02:56:50;;;;;;;9.03;6.83;;;4.20;99.90;;;;;;5112477;28;20472;-71
2021/03/30 02:59:19;;;;;;;12.10;7.77;;;4.20;99.90;;;;;;5112300;28;20469;-71
2021/03/30 03:01:48;;;;;;;9.73;6.70;;;4.20;99.90;;;;;;5112421;28;20453;-72
2021/03/30 03:04:15;;;;;;;9.13;6.10;;;4.20;99.90;;;;;;5112518;28;20524;-71
2021/03/30 03:06:42;;;;;;;11.80;7.50;;;4.20;99.90;;;;;;5112176;28;20494;-72
2021/03/30 03:09:10;;;;;;;10.70;7.30;;;4.10;99.90;;;;;;5112272;28;20456;-71
2021/03/30 03:11:39;;;;;;;9.10;7.03;;;4.10;99.90;;;;;;5111770;28;20441;-71
2021/03/30 03:14:08;;;;;;;14.70;8.03;;;4.00;99.90;;;;;;5111928;28;20449;-71
2021/03/30 03:16:36;;;;;;;11.87;7.43;;;4.10;99.90;;;;;;5112257;28;20479;-71
2021/03/30 03:19:05;;;;;;;7.27;6.53;;;4.20;99.90;;;;;;5112175;28;20527;-71
2021/03/30 03:21:31;;;;;;;8.97;6.97;;;4.10;99.90;;;;;;5111492;28;20564;-71
2021/03/30 03:23:58;;;;;;;10.20;6.50;;;4.10;99.90;;;;;;5111992;28;20477;-71
2021/03/30 03:26:25;;;;;;;12.60;6.97;;;4.00;99.90;;;;;;5111904;28;20532;-71
2021/03/30 03:28:51;;;;;;;10.77;6.43;;;4.00;99.90;;;;;;5112047;28;20544;-72
2021/03/30 03:31:27;;;;;;;10.30;6.87;;;4.10;99.90;;;;;;5111519;28;20533;-72
2021/03/30 03:33:54;;;;;;;7.33;5.63;;;4.10;99.90;;;;;;5111940;28;20544;-71
2021/03/30 03:36:20;;;;;;;9.97;6.97;;;4.20;99.90;;;;;;5111720;28;20447;-71
2021/03/30 03:38:47;;;;;;;9.63;6.33;;;4.10;99.90;;;;;;5111453;28;20465;-72
2021/03/30 03:41:15;;;;;;;7.97;6.50;;;4.10;99.90;;;;;;5111248;28;20491;-71
2021/03/30 03:43:43;;;;;;;7.80;6.27;;;4.10;99.90;;;;;;5111877;28;21068;-71
2021/03/30 03:46:14;;;;;;;8.03;6.27;;;4.10;99.90;;;;;;5111409;28;20448;-71
2021/03/30 03:48:41;;;;;;;10.67;7.30;;;4.20;99.90;;;;;;5111450;28;21049;-71
2021/03/30 03:51:08;;;;;;;12.07;6.77;;;4.30;99.90;;;;;;5111079;28;20429;-71
2021/03/30 03:53:36;;;;;;;9.37;7.00;;;4.30;99.90;;;;;;5111185;28;20445;-71
2021/03/30 03:56:04;;;;;;;14.07;7.38;;;4.30;99.90;;;;;;5111113;28;20514;-71
2021/03/30 03:58:34;;;;;;;9.67;7.10;;;4.30;99.90;;;;;;5111276;28;20310;-71
2021/03/30 04:01:02;;;;;;;9.10;6.83;;;4.30;99.90;;;;;;5110885;28;20487;-71
2021/03/30 04:03:33;;;;;;;10.13;7.43;;;4.20;99.90;;;;;;5110933;28;20578;-71
2021/03/30 04:06:08;;;;;;;10.17;8.33;;;4.10;99.90;;;;;;5110999;28;20927;-71
2021/03/30 04:08:35;;;;;;;7.40;6.27;;;4.00;99.90;;;;;;5111067;28;20581;-71
2021/03/30 04:11:05;;;;;;;9.53;6.27;;;4.10;99.90;;;;;;5110397;28;21097;-71
2021/03/30 04:13:33;;;;;;;7.43;6.07;;;4.10;99.90;;;;;;5110988;28;20871;-71
2021/03/30 04:16:05;;;;;;;10.53;6.67;;;4.00;99.90;;;;;;5110867;28;20494;-71
2021/03/30 04:18:32;;;;;;;13.20;7.17;;;4.00;99.90;;;;;;5110718;28;20472;-71
2021/03/30 04:21:01;;;;;;;12.07;7.93;;;4.00;99.90;;;;;;5110733;28;20507;-70
2021/03/30 04:23:28;;;;;;;8.57;6.80;;;4.00;99.90;;;;;;5102357;28;20502;-70
2021/03/30 04:25:54;;;;;;;6.70;5.60;;;4.00;99.90;;;;;;5103252;28;20517;-70
2021/03/30 04:28:21;;;;;;;7.20;5.57;;;3.90;99.90;;;;;;5098331;28;20531;-70
2021/03/30 04:30:47;;;;;;;8.70;5.90;;;3.80;99.90;;;;;;5092865;28;20860;-71
2021/03/30 04:33:14;;;;;;;12.17;6.20;;;3.90;99.90;;;;;;5090328;28;20975;-71
2021/03/30 04:35:41;;;;;;;11.90;7.03;;;3.90;99.90;;;;;;5090399;28;20516;-70
2021/03/30 04:38:07;;;;;;;10.20;6.07;;;3.80;99.90;;;;;;5090472;28;20545;-69
2021/03/30 04:40:34;;;;;;;10.10;5.77;;;3.90;99.90;;;;;;5089877;28;20509;-70
2021/03/30 04:43:00;;;;;;;9.47;6.33;;;3.80;99.90;;;;;;5090556;28;20534;-71
2021/03/30 04:45:26;;;;;;;10.30;6.60;;;3.80;99.90;;;;;;5090405;28;20536;-70
2021/03/30 04:47:53;;;;;;;10.20;7.30;;;3.80;99.90;;;;;;5090044;28;20470;-70
2021/03/30 04:50:20;;;;;;;12.47;7.70;;;3.70;99.90;;;;;;5089970;28;21126;-70
2021/03/30 04:52:46;;;;;;;9.17;6.67;;;3.80;99.90;;;;;;5101093;28;20473;-70
2021/03/30 04:55:14;;;;;;;9.50;6.63;;;3.80;99.90;;;;;;5100496;28;20532;-72
2021/03/30 04:57:41;;;;;;;9.70;7.30;;;3.80;99.90;;;;;;5097230;28;20545;-70
2021/03/30 05:00:08;;;;;;;9.73;8.63;;;3.80;99.90;;;;;;5088712;28;20553;-70
2021/03/30 05:02:35;;;;;;;10.93;6.67;;;3.70;99.90;;;;;;5089329;28;20546;-70
2021/03/30 05:05:01;;;;;;;10.70;6.70;;;3.70;99.90;;;;;;5088766;28;20518;-69
2021/03/30 05:07:28;;;;;;;12.57;7.87;;;3.60;99.90;;;;;;5088706;28;20550;-70
2021/03/30 05:09:55;;;;;;;6.57;5.90;;;3.60;99.90;;;;;;5090195;28;20454;-69
2021/03/30 05:12:21;;;;;;;9.13;6.20;;;3.70;99.90;;;;;;5093291;28;20507;-69
2021/03/30 05:14:47;;;;;;;11.47;6.30;;;3.80;99.90;;;;;;5103159;28;20495;-69
2021/03/30 05:17:14;;;;;;;9.03;6.87;;;3.90;99.90;;;;;;5103633;28;20489;-69
2021/03/30 05:19:41;;;;;;;8.97;6.50;;;3.90;99.90;;;;;;5107731;27;20452;-69
2021/03/30 05:22:07;;;;;;;12.57;6.00;;;4.00;99.90;;;;;;5104090;27;20442;-69
2021/03/30 05:24:35;;;;;;;10.87;6.20;;;3.90;99.90;;;;;;5105800;28;20571;-69
2021/03/30 05:27:01;;;;;;;12.17;7.37;;;3.80;99.90;;;;;;5106198;28;20457;-69
2021/03/30 05:29:28;;;;;;;8.07;6.07;;;3.80;99.90;;;;;;5102342;28;20474;-71
2021/03/30 05:31:54;;;;;;;9.47;6.43;;;3.80;99.90;;;;;;5094065;28;20528;-71
2021/03/30 05:34:23;;;;;;;13.73;6.07;;;3.90;99.90;;;;;;5099394;28;20544;-69
2021/03/30 05:36:50;;;;;;;7.23;5.37;;;3.90;99.90;;;;;;5101370;27;20914;-69
2021/03/30 05:39:16;;;;;;;7.60;6.70;;;4.00;99.90;;;;;;5107365;28;20923;-69
2021/03/30 05:41:43;;;;;;;10.93;5.93;;;4.00;99.90;;;;;;5113596;28;20564;-70
2021/03/30 05:44:10;;;;;;;11.68;7.13;;;4.10;99.90;;;;;;5113770;28;20458;-71
2021/03/30 05:46:39;;;;;;;12.97;6.97;;;4.20;99.90;;;;;;5114043;28;20208;-71
2021/03/30 05:49:05;;;;;;;9.53;6.73;;;4.20;99.90;;;;;;5113970;28;20498;-71
2021/03/30 05:51:38;;;;;;;9.50;7.13;;;4.20;99.90;;;;;;5105576;28;20438;-72
2021/03/30 05:54:08;;;;;;;14.67;6.70;;;4.30;99.90;;;;;;5093894;28;20446;-75
2021/03/30 05:56:39;;;;;;;9.77;7.53;;;4.40;99.90;;;;;;5094472;28;20521;-75
2021/03/30 05:59:10;;;;;;;8.13;6.00;;;4.50;99.90;;;;;;5093902;28;20469;-71
2021/03/30 06:01:40;;;;;;;8.17;7.37;;;4.50;99.90;;;;;;5092252;28;20473;-71
2021/03/30 06:04:09;;;;;;;9.03;6.37;;;4.50;99.90;;;;;;5093153;28;20533;-71
2021/03/30 06:06:36;;;;;;;11.60;7.13;;;4.50;99.90;;;;;;5092861;28;20461;-71
2021/03/30 06:09:04;;;;;;;10.80;7.13;;;4.50;99.90;;;;;;5106372;28;20506;-71
2021/03/30 06:11:31;;;;;;;9.97;7.47;;;4.60;99.90;;;;;;5112711;28;20528;-71
2021/03/30 06:13:59;;;;;;;14.83;7.87;;;4.70;99.90;;;;;;5113225;28;20552;-71
2021/03/30 06:16:30;;;;;;;9.90;8.17;;;4.80;99.90;;;;;;5113278;28;20441;-71
2021/03/30 06:19:10;;;;;;;10.03;7.13;;;4.80;99.90;;;;;;5113139;28;20446;-71
2021/03/30 06:21:39;;;;;;;8.13;6.83;;;4.90;99.90;;;;;;5110889;28;20465;-72
2021/03/30 06:24:29;;;;;;;9.13;6.63;;;5.10;99.90;;;;;;5113085;28;20536;-72
2021/03/30 06:27:05;;;;;;;17.00;9.43;;;5.30;99.90;;;;;;5103503;28;20541;-72
2021/03/30 06:29:35;;;;;;;13.90;6.80;;;5.40;99.90;;;;;;5099229;28;20437;-72
2021/03/30 06:32:04;;;;;;;12.07;7.67;;;5.50;99.90;;;;;;5111828;28;20440;-72
2021/03/30 06:34:32;;;;;;;12.37;7.70;;;5.60;99.90;;;;;;5113365;28;20441;-72
2021/03/30 06:36:59;;;;;;;11.13;7.67;;;5.70;99.90;;;;;;5112722;28;20553;-71
2021/03/30 06:39:34;;;;;;;15.10;8.17;;;5.80;99.90;;;;;;5111727;28;20528;-71
2021/03/30 06:42:04;;;;;;;12.73;7.57;;;5.90;99.90;;;;;;5098190;28;20618;-71
2021/03/30 06:44:34;;;;;;;9.23;6.80;;;6.00;99.90;;;;;;5112258;28;20466;-70
2021/03/30 06:47:07;;;;;;;10.97;7.03;;;6.20;99.90;;;;;;5112247;28;20464;-71
2021/03/30 06:49:35;;;;;;;14.33;8.50;;;6.40;99.90;;;;;;5112412;28;20433;-71
2021/03/30 06:52:13;;;;;;;11.60;8.50;;;6.50;99.90;;;;;;5112224;28;20445;-71
2021/03/30 06:54:54;;;;;;;12.00;6.87;;;6.60;99.90;;;;;;5112260;28;20472;-70
2021/03/30 06:57:38;;;;;;;13.17;7.57;;;6.80;99.90;;;;;;5111421;28;20457;-71
2021/03/30 07:00:10;;;;;;;14.40;7.83;;;6.90;99.90;;;;;;5111053;28;20476;-71
2021/03/30 07:02:42;;;;;;;9.57;7.37;;;7.10;99.90;;;;;;5112201;28;20532;-71
2021/03/30 07:05:21;;;;;;;9.53;6.70;;;7.30;99.90;;;;;;5112166;28;20442;-71
2021/03/30 07:07:51;;;;;;;14.10;7.80;;;7.50;99.90;;;;;;5110864;28;20461;-71
2021/03/30 07:10:19;;;;;;;12.20;7.03;;;7.80;99.90;;;;;;5111859;28;20949;-70
2021/03/30 07:12:48;;;;;;;12.93;7.90;;;8.00;99.90;;;;;;5112125;28;20492;-70
2021/03/30 07:15:15;;;;;;;9.77;6.93;;;8.20;99.90;;;;;;5112208;28;20502;-70
2021/03/30 07:17:46;;;;;;;11.00;7.20;;;8.40;99.90;;;;;;5111787;28;20552;-70
2021/03/30 07:20:17;;;;;;;11.87;6.60;;;8.60;99.90;;;;;;5111745;28;20559;-68
2021/03/30 07:22:47;;;;;;;9.43;7.30;;;8.80;99.90;;;;;;5111863;28;20928;-71
2021/03/30 07:25:17;;;;;;;9.17;7.97;;;8.90;99.90;;;;;;5106141;28;20453;-71
2021/03/30 07:27:59;;;;;;;12.53;7.87;;;9.00;99.90;;;;;;5100707;28;21220;-72
2021/03/30 07:30:26;;;;;;;14.30;7.90;;;9.10;99.90;;;;;;5111654;28;20520;-73
2021/03/30 07:33:03;;;;;;;14.53;8.50;;;9.10;99.90;;;;;;5111388;28;20445;-71
2021/03/30 07:35:30;;;;;;;10.07;7.87;;;9.30;99.90;;;;;;5111598;28;20524;-72
2021/03/30 07:38:04;;;;;;;11.83;8.30;;;9.40;99.90;;;;;;5111752;28;20545;-72
2021/03/30 07:40:31;;;;;;;11.40;7.43;;;9.50;99.90;;;;;;5110955;28;20533;-70
2021/03/30 07:42:58;;;;;;;10.50;7.50;;;9.60;99.90;;;;;;5111433;28;20476;-71
2021/03/30 07:45:31;;;;;;;11.73;7.50;;;9.80;99.90;;;;;;5111317;28;20490;-69
2021/03/30 07:47:59;;;;;;;9.07;6.87;;;9.90;99.90;;;;;;5110619;28;20553;-72
2021/03/30 07:50:48;;;;;;;10.10;7.70;;;10.10;99.90;;;;;;5110958;28;20527;-70
2021/03/30 07:53:39;;;;;;;8.20;7.30;;;10.30;99.90;;;;;;5111277;28;20433;-70
2021/03/30 07:56:06;;;;;;;8.90;7.27;;;10.40;99.90;;;;;;5099953;28;20453;-70
2021/03/30 07:58:45;;;;;;;9.50;7.00;;;10.60;99.90;;;;;;5111001;28;20547;-70
2021/03/30 08:01:14;;;;;;;11.87;8.23;;;10.70;99.90;;;;;;5110647;28;20559;-70
2021/03/30 08:03:43;;;;;;;10.93;7.00;;;10.90;99.90;;;;;;5110998;28;21296;-69
2021/03/30 08:06:17;;;;;;;7.27;6.57;;;11.10;99.90;;;;;;5111035;28;20537;-70
2021/03/30 08:08:49;;;;;;;10.27;7.37;;;11.20;99.90;;;;;;5110809;28;20473;-70
2021/03/30 08:11:16;;;;;;;9.60;7.20;;;11.40;99.90;;;;;;5110782;28;20476;-70
2021/03/30 08:13:50;;;;;;;10.37;6.90;;;11.50;99.90;;;;;;5111100;28;20524;-70
2021/03/30 08:16:18;;;;;;;9.80;6.60;;;11.70;99.90;;;;;;5111237;28;20496;-70
2021/03/30 08:18:47;;;;;;;8.77;7.10;;;11.80;99.90;;;;;;5110602;28;20987;-70
2021/03/30 08:21:14;;;;;;;9.57;6.47;;;12.00;99.90;;;;;;5110641;28;20481;-70
2021/03/30 08:24:08;;;;;;;12.73;8.10;;;12.10;99.90;;;;;;5111055;28;20490;-70
2021/03/30 08:26:37;;;;;;;8.70;6.50;;;12.30;99.90;;;;;;5063059;28;20951;-70
2021/03/30 08:29:06;;;;;;;7.60;6.60;;;12.50;99.90;;;;;;5110421;28;20469;-69
2021/03/30 08:31:36;;;;;;;7.43;5.87;;;12.60;99.90;;;;;;5110673;28;20465;-70
2021/03/30 08:34:05;;;;;;;8.20;6.90;;;12.90;99.90;;;;;;5110591;28;20982;-69
2021/03/30 08:36:37;;;;;;;14.23;7.07;;;13.00;99.90;;;;;;5110421;28;20437;-70
2021/03/30 08:39:07;;;;;;;6.10;5.50;;;13.20;99.90;;;;;;5110870;28;20842;-70
2021/03/30 08:41:54;;;;;;;8.50;7.70;;;13.30;99.90;;;;;;5110481;28;20481;-70
2021/03/30 08:44:31;;;;;;;7.03;6.30;;;13.50;99.30;;;;;;5109913;28;20444;-69
2021/03/30 08:46:59;;;;;;;8.70;6.03;;;13.70;99.90;;;;;;5110231;28;20521;-69
2021/03/30 08:49:29;;;;;;;10.40;5.90;;;13.80;98.30;;;;;;5110012;28;20477;-70
2021/03/30 08:51:59;;;;;;;9.03;6.60;;;13.90;98.50;;;;;;5110368;28;20473;-70
2021/03/30 08:54:27;;;;;;;6.40;5.50;;;14.10;98.60;;;;;;5110435;28;20874;-69
2021/03/30 08:56:58;;;;;;;10.97;6.57;;;14.30;98.60;;;;;;5110064;28;20461;-69
2021/03/30 08:59:28;;;;;;;9.90;5.20;;;14.40;97.80;;;;;;5110008;28;20456;-69
2021/03/30 09:02:02;;;;;;;8.47;5.60;;;14.60;98.10;;;;;;5109996;28;20491;-69
2021/03/30 09:04:35;;;;;;;8.57;5.80;;;14.60;94.90;;;;;;5110403;28;20476;-69
2021/03/30 09:07:02;;;;;;;7.03;4.80;;;14.90;95.90;;;;;;5109939;28;21038;-69
2021/03/30 09:09:34;;;;;;;6.13;5.03;;;15.10;94.40;;;;;;5109718;28;20544;-69
2021/03/30 09:12:02;;;;;;;6.20;5.00;;;15.30;93.80;;;;;;5110044;28;20437;-69
2021/03/30 09:14:29;;;;;;;9.27;5.23;;;15.50;93.30;;;;;;5110282;28;20527;-69
2021/03/30 09:17:05;;;;;;;7.63;4.77;;;15.70;92.00;;;;;;5110253;28;20468;-69
2021/03/30 09:19:32;;;;;;;6.60;4.90;;;16.10;91.40;;;;;;5109863;28;20489;-69
2021/03/30 09:22:02;;;;;;;5.93;4.40;;;16.60;90.20;;;;;;5109998;28;20565;-69
2021/03/30 09:27:14;;;;;;;8.77;5.10;;;17.60;89.40;;;;;;5109019;28;20445;-69
2021/03/30 09:29:41;;;;;;;8.40;5.40;;;18.20;86.80;;;;;;5109733;28;21228;-69
2021/03/30 09:32:09;;;;;;;5.37;4.83;;;18.50;87.60;;;;;;5109939;28;21023;-70
2021/03/30 09:34:38;;;;;;;6.07;4.90;;;19.00;85.30;;;;;;5109971;28;20441;-70
2021/03/30 09:37:06;;;;;;;7.90;5.90;;;19.60;82.10;;;;;;5109645;28;20544;-70
2021/03/30 09:39:35;;;;;;;8.30;6.10;;;19.90;78.10;;;;;;5109495;28;20532;-69
2021/03/30 09:42:01;;;;;;;7.33;5.10;;;20.00;77.60;;;;;;5108907;28;20480;-70
2021/03/30 09:44:34;;;;;;;7.50;5.63;;;20.30;73.80;;;;;;5109735;28;20530;-70
2021/03/30 09:47:01;;;;;;;8.27;6.10;;;20.60;73.70;;;;;;5109694;28;21042;-70
2021/03/30 09:49:28;;;;;;;7.63;5.63;;;20.80;71.60;;;;;;5109601;28;20448;-70
2021/03/30 09:51:55;;;;;;;8.13;6.00;;;21.10;70.50;;;;;;5109532;28;20429;-70
2021/03/30 09:54:30;;;;;;;7.77;6.40;;;21.20;69.80;;;;;;5109959;28;20567;-70
2021/03/30 09:56:59;;;;;;;8.73;6.60;;;21.30;69.60;;;;;;5112513;28;20487;-70
2021/03/30 09:59:25;;;;;;;9.73;6.33;;;21.60;70.00;;;;;;5113080;28;20441;-70
2021/03/30 10:01:52;;;;;;;8.63;6.00;;;21.90;65.30;;;;;;5113212;28;20476;-70
2021/03/30 10:04:22;;;;;;;9.43;6.33;;;22.00;66.50;;;;;;5113309;28;21068;-70
2021/03/30 10:06:48;;;;;;;8.13;5.90;;;22.00;64.80;;;;;;5113305;28;20528;-70
2021/03/30 10:09:14;;;;;;;9.50;7.97;;;22.00;63.30;;;;;;5112829;27;20449;-70
2021/03/30 10:11:44;;;;;;;8.33;6.50;;;22.10;65.50;;;;;;5102192;28;20546;-71
2021/03/30 10:14:18;;;;;;;12.53;7.93;;;22.30;63.80;;;;;;5096681;28;20522;-70
2021/03/30 10:16:45;;;;;;;13.20;7.17;;;22.60;65.30;;;;;;5091513;28;20529;-70
2021/03/30 10:19:13;;;;;;;9.97;7.10;;;22.80;60.50;;;;;;5094383;28;20524;-70
2021/03/30 10:21:40;;;;;;;11.70;7.17;;;23.00;61.10;;;;;;5097751;28;20620;-68
2021/03/30 10:24:16;;;;;;;8.43;7.53;;;23.30;61.30;;;;;;5102353;28;20449;-70
2021/03/30 10:27:01;;;;;;;8.10;7.07;;;23.40;58.90;;;;;;5103789;28;20463;-70
2021/03/30 10:29:37;;;;;;;9.30;8.23;;;23.60;57.40;;;;;;5097745;28;20434;-69
2021/03/30 10:32:09;;;;;;;8.70;6.77;;;23.30;57.00;;;;;;5097921;28;20951;-72
2021/03/30 10:34:36;;;;;;;7.43;6.63;;;23.50;58.40;;;;;;5090584;28;21158;-71
2021/03/30 10:37:04;;;;;;;9.20;7.20;;;23.80;59.40;;;;;;5090260;28;20537;-71
2021/03/30 10:39:33;;;;;;;11.37;7.40;;;24.20;58.70;;;;;;5089931;28;20472;-71
2021/03/30 10:42:06;;;;;;;9.37;7.00;;;24.50;56.70;;;;;;5090102;28;21087;-71
2021/03/30 10:44:38;;;;;;;9.20;6.57;;;25.00;55.80;;;;;;5090245;28;20469;-71
2021/03/30 10:47:17;;;;;;;7.00;6.30;;;25.20;54.80;;;;;;5098593;28;20466;-71
2021/03/30 10:49:45;;;;;;;6.50;5.80;;;25.10;49.80;;;;;;5096364;28;21299;-71
2021/03/30 10:52:17;;;;;;;8.37;6.30;;;25.40;51.70;;;;;;5110144;28;20441;-71
2021/03/30 10:54:44;;;;;;;8.87;6.80;;;25.70;50.80;;;;;;5105081;28;20438;-71
2021/03/30 10:57:15;;;;;;;11.00;5.80;;;25.40;51.10;;;;;;5090852;28;21088;-71
2021/03/30 10:59:43;;;;;;;8.20;5.30;;;25.30;51.50;;;;;;5090273;28;20449;-71
2021/03/30 11:02:10;;;;;;;11.80;5.23;;;25.20;51.30;;;;;;5089756;28;20470;-71
2021/03/30 11:04:37;;;;;;;7.80;5.17;;;25.50;50.00;;;;;;5090006;28;20821;-70
2021/03/30 11:07:04;;;;;;;6.70;5.43;;;26.10;49.70;;;;;;5089180;28;20486;-70
2021/03/30 11:09:30;;;;;;;7.60;5.70;;;26.40;49.60;;;;;;5089044;28;20545;-70
2021/03/30 11:11:56;;;;;;;9.03;5.40;;;26.20;46.50;;;;;;5089655;28;20861;-70
2021/03/30 11:14:24;;;;;;;7.27;5.97;;;25.60;46.10;;;;;;5089661;28;20466;-69
2021/03/30 11:16:50;;;;;;;5.63;5.03;;;25.30;46.30;;;;;;5096445;28;20530;-69
2021/03/30 11:19:17;;;;;;;6.97;4.97;;;25.40;46.70;;;;;;5089980;28;20466;-69
2021/03/30 11:21:44;;;;;;;6.40;5.20;;;25.90;47.30;;;;;;5089303;28;20521;-69
2021/03/30 11:24:16;;;;;;;7.80;5.63;;;26.70;49.20;;;;;;5089950;28;20450;-70
2021/03/30 11:26:44;;;;;;;6.23;5.47;;;27.00;46.20;;;;;;5091131;28;20521;-70
2021/03/30 11:29:15;;;;;;;11.33;5.90;;;26.80;45.80;;;;;;5090005;28;21242;-71
2021/03/30 11:34:30;;;;;;;5.40;4.43;;;27.40;44.20;;;;;;5079458;28;20443;-70
2021/03/30 11:37:03;;;;;;;8.50;4.80;;;28.00;45.20;;;;;;5089166;28;21010;-71
2021/03/30 11:39:29;;;;;;;6.40;4.87;;;28.90;45.30;;;;;;5110021;27;20442;-71
2021/03/30 11:42:00;;;;;;;7.73;5.10;;;29.60;41.00;;;;;;5138121;27;20468;-70
2021/03/30 11:44:26;;;;;;;6.33;4.17;;;29.60;40.50;;;;;;5110310;27;20454;-71
2021/03/30 11:46:53;;;;;;;6.30;4.80;;;29.70;39.70;;;;;;5090743;28;21013;-70
2021/03/30 11:49:20;;;;;;;5.80;5.00;;;29.40;40.80;;;;;;5088173;28;20438;-70
2021/03/30 11:51:46;;;;;;;6.73;4.63;;;29.50;39.50;;;;;;5088759;28;20533;-70
2021/03/30 11:54:12;;;;;;;6.20;4.77;;;29.80;41.40;;;;;;5101360;28;21184;-71
2021/03/30 11:56:39;;;;;;;10.20;5.10;;;30.20;40.10;;;;;;5098429;28;20943;-71
2021/03/30 11:59:05;;;;;;;5.90;4.47;;;30.60;40.50;;;;;;5097060;28;20473;-71
2021/03/30 12:01:31;;;;;;;5.13;4.50;;;31.10;38.10;;;;;;5088737;28;20577;-70
2021/03/30 12:03:59;;;;;;;7.60;5.00;;;31.20;37.10;;;;;;5089272;28;20478;-69
2021/03/30 12:06:25;;;;;;;10.70;5.10;;;31.60;35.80;;;;;;5091428;28;20534;-69
2021/03/30 12:08:51;;;;;;;5.17;3.90;;;32.30;36.50;;;;;;5101845;28;20465;-71
2021/03/30 12:11:18;;;;;;;6.10;4.23;;;32.60;34.40;;;;;;5090252;28;20544;-69
2021/03/30 12:13:44;;;;;;;5.47;4.53;;;32.80;34.10;;;;;;5095936;28;20444;-69
2021/03/30 12:16:10;;;;;;;5.80;4.53;;;33.20;33.90;;;;;;5100557;28;21000;-67
2021/03/30 12:18:37;;;;;;;4.90;4.00;;;33.00;33.10;;;;;;5088878;28;20524;-69
2021/03/30 12:21:05;;;;;;;6.40;4.07;;;32.40;34.90;;;;;;5096137;28;20994;-69
2021/03/30 12:23:31;;;;;;;8.27;4.23;;;33.10;32.80;;;;;;5108942;28;20488;-69
2021/03/30 12:25:57;;;;;;;5.23;3.90;;;32.60;32.50;;;;;;5099064;28;20453;-70
2021/03/30 12:28:24;;;;;;;5.20;4.30;;;31.90;32.60;;;;;;5097626;28;20550;-69
2021/03/30 12:30:52;;;;;;;6.97;4.40;;;31.50;33.00;;;;;;5104397;28;20480;-68
2021/03/30 12:33:18;;;;;;;6.63;4.33;;;31.00;33.60;;;;;;5109449;28;20579;-68
2021/03/30 12:35:45;;;;;;;5.07;4.33;;;30.70;34.30;;;;;;5109935;28;20469;-68
2021/03/30 12:38:12;;;;;;;6.13;4.47;;;30.80;35.20;;;;;;5092113;28;20555;-68
2021/03/30 12:40:38;;;;;;;5.20;4.00;;;31.90;35.90;;;;;;5087826;28;20522;-69
2021/03/30 12:43:05;;;;;;;5.43;4.40;;;32.80;34.00;;;;;;5089476;28;20537;-68
2021/03/30 12:45:34;;;;;;;5.03;4.40;;;33.30;32.20;;;;;;5089065;28;20485;-69
2021/03/30 12:48:01;;;;;;;10.97;5.60;;;31.40;31.70;;;;;;5099570;28;20556;-69
2021/03/30 12:50:29;;;;;;;7.30;4.10;;;31.50;32.40;;;;;;5108813;27;20465;-68
2021/03/30 12:52:55;;;;;;;5.60;4.07;;;32.10;33.00;;;;;;5089576;28;20474;-69
2021/03/30 12:55:23;;;;;;;6.80;3.73;;;32.60;30.40;;;;;;5096431;28;20520;-68
2021/03/30 12:57:49;;;;;;;5.03;4.40;;;32.60;30.40;;;;;;5096222;28;20464;-68
2021/03/30 13:00:17;;;;;;;6.77;4.57;;;32.70;31.10;;;;;;5097800;28;20452;-69
2021/03/30 13:02:43;;;;;;;5.73;4.13;;;33.50;31.30;;;;;;5097182;28;20439;-69
2021/03/30 13:05:11;;;;;;;4.97;4.20;;;34.60;30.00;;;;;;5101148;28;20485;-68
2021/03/30 13:07:37;;;;;;;6.30;4.80;;;34.60;28.20;;;;;;5092652;28;20532;-68